aviador You're here:

LFSI Decoded Metar

ST.-DIZIER in FRANCE
Report Time2018-05-22 23:00:00
UTC Time2018-05-22 23:27:06
Flight Rules vfr VFR
Wind210° at 02 kt
W.Decomp.*RWY 29: 0.3 kt HW 2 kt LCW
W.Rank210° ranks 5
Current wind is below 210° avg. (7.2)
Visibility9999 m
Phenomena:N/A
Clouds:N/A
Expected CloudBase > 1,200 ft AGL from Temp-Dew spread
CeilingNone
Temp17°C (ISA +3)
Dew Point14°C (83% RH)
QNH1015 hPa
Density Alt948 ft
Elevation459 ft
Report Wrong Elevation
Raw Report
LFSI 222300Z AUTO 21002KT CAVOK 17/14 Q1015=

Extra information for LFSI:More info

Metar Taf Metar & Taf Last 4 Metars F.Rules Stats Wind Profile Meteogram Temp Stats Airport Information Weather charts Add Link Nearby VenuesMetar ALERT Operation Metar Decoded Social comments